Terminal Aerodrome Forecast
Issued by NWS Sterling, VA

Current Version | Previous Version | Graphics & Text | Print | Product List | Glossary On
Versions: 1 2 3 4 5 6 7 8 9 10 11 12 13 14 15 16 17 18 19 20 21
000
FTUS41 KLWX 221500 AAA
TAFDCA
TAF AMD
KDCA 221509Z 2215/2312 17005KT P6SM SCT100 BKN200
     FM221700 22008KT P6SM -SHRA SCT070 BKN090
     FM221900 25010KT P6SM SCT070 BKN080
     FM222300 29010G21KT P6SM SCT050 BKN150=

USA.gov is the U.S. government's official web portal to all federal, state and local government web resources and services.